createdAt,value
2023-05-14T00:00:59.284Z,12.66
2023-05-14T00:01:59.409Z,12.70
2023-05-14T00:02:59.470Z,12.84
2023-05-14T00:03:59.382Z,12.85
2023-05-14T00:04:59.255Z,12.93
2023-05-14T00:05:59.238Z,13.09
2023-05-14T00:06:59.288Z,12.87
2023-05-14T00:07:59.214Z,12.92
2023-05-14T00:08:59.211Z,12.89
2023-05-14T00:09:59.203Z,12.99
2023-05-14T00:10:59.254Z,12.93
2023-05-14T00:11:59.222Z,12.70
2023-05-14T00:12:59.186Z,12.41
2023-05-14T00:13:59.172Z,12.39
2023-05-14T00:14:59.151Z,12.26
2023-05-14T00:15:59.182Z,12.30
2023-05-14T00:16:59.174Z,12.16
2023-05-14T00:17:59.226Z,11.93
2023-05-14T00:18:59.143Z,11.77
2023-05-14T00:19:59.136Z,11.64
2023-05-14T00:20:59.127Z,11.61
2023-05-14T00:21:59.120Z,11.54
2023-05-14T00:22:59.135Z,11.50
2023-05-14T00:23:59.106Z,11.49
2023-05-14T00:24:59.105Z,11.38
2023-05-14T00:25:59.105Z,11.47
2023-05-14T00:26:59.082Z,11.49
2023-05-14T00:27:59.150Z,11.31
2023-05-14T00:28:59.072Z,11.32
2023-05-14T00:29:59.080Z,11.41
2023-05-14T00:30:59.087Z,11.59
2023-05-14T00:31:59.049Z,11.65
2023-05-14T00:32:59.109Z,11.78
2023-05-14T00:34:00.051Z,11.77
2023-05-14T00:34:59.042Z,11.68
2023-05-14T00:35:59.048Z,11.67
2023-05-14T00:36:59.029Z,11.68
2023-05-14T00:37:59.016Z,11.68
2023-05-14T00:38:59.028Z,11.71
2023-05-14T00:39:59.008Z,11.72
2023-05-14T00:40:58.996Z,11.68
2023-05-14T00:41:58.998Z,11.68
2023-05-14T00:42:59.433Z,11.82
2023-05-14T00:43:59.007Z,11.85
2023-05-14T00:44:58.992Z,11.68
2023-05-14T00:45:58.993Z,11.64
2023-05-14T00:46:59.088Z,11.54
2023-05-14T00:47:59.011Z,11.44
2023-05-14T00:48:58.984Z,11.43
2023-05-14T00:49:58.966Z,11.61
2023-05-14T00:50:58.940Z,11.65
2023-05-14T00:51:58.961Z,11.65
2023-05-14T00:52:58.980Z,11.62
2023-05-14T00:53:58.948Z,11.41
2023-05-14T00:54:58.950Z,11.49
2023-05-14T00:55:58.925Z,11.46
2023-05-14T00:56:58.908Z,11.41
2023-05-14T00:57:58.949Z,11.32
2023-05-14T00:58:58.910Z,11.28
2023-05-14T00:59:58.886Z,11.01
2023-05-14T01:00:58.948Z,11.06
2023-05-14T01:01:58.915Z,11.13
2023-05-14T01:02:58.915Z,11.19
2023-05-14T01:03:59.027Z,11.36
2023-05-14T01:04:58.882Z,11.46
2023-05-14T01:05:58.963Z,11.57
2023-05-14T01:06:58.860Z,11.70
2023-05-14T01:07:58.878Z,11.61
2023-05-14T01:08:58.851Z,11.56
2023-05-14T01:09:58.840Z,11.61
2023-05-14T01:10:58.865Z,11.75
2023-05-14T01:11:58.852Z,11.87
2023-05-14T01:12:58.856Z,11.96
2023-05-14T01:13:58.843Z,12.19
2023-05-14T01:14:58.805Z,12.31
2023-05-14T01:15:58.846Z,12.23
2023-05-14T01:16:58.816Z,12.44
2023-05-14T01:17:58.863Z,12.41
2023-05-14T01:18:58.909Z,12.42
2023-05-14T01:19:58.814Z,12.31
2023-05-14T01:20:58.768Z,12.44
2023-05-14T01:21:58.790Z,12.33
2023-05-14T01:22:58.782Z,12.33
2023-05-14T01:23:58.773Z,12.38
2023-05-14T01:24:58.755Z,12.27
2023-05-14T01:25:58.879Z,12.24
2023-05-14T01:26:58.730Z,12.08
2023-05-14T01:27:58.737Z,11.86
2023-05-14T01:28:58.739Z,11.54
2023-05-14T01:29:58.711Z,11.68
2023-05-14T01:30:58.814Z,11.71
2023-05-14T01:31:58.753Z,11.78
2023-05-14T01:32:58.752Z,11.82
2023-05-14T01:33:58.690Z,11.89
2023-05-14T01:34:58.701Z,11.80
2023-05-14T01:35:58.845Z,11.94
2023-05-14T01:36:58.717Z,11.87
2023-05-14T01:37:58.688Z,11.86
2023-05-14T01:38:58.712Z,11.96
2023-05-14T01:39:58.734Z,11.78
2023-05-14T01:40:58.720Z,11.59
2023-05-14T01:41:58.689Z,11.28
2023-05-14T01:42:58.729Z,11.21
2023-05-14T01:43:58.697Z,11.07
2023-05-14T01:44:58.633Z,10.91
2023-05-14T01:45:58.684Z,10.92
2023-05-14T01:46:58.622Z,10.96
2023-05-14T01:47:58.734Z,10.89
2023-05-14T01:48:58.664Z,10.99
2023-05-14T01:49:58.626Z,11.06
2023-05-14T01:50:58.640Z,11.07
2023-05-14T01:51:58.638Z,11.09
2023-05-14T01:52:58.659Z,11.09
2023-05-14T01:53:58.621Z,11.17
2023-05-14T01:54:58.609Z,11.17
2023-05-14T01:55:58.616Z,11.24
2023-05-14T01:56:58.652Z,11.27
2023-05-14T01:57:58.657Z,11.31
2023-05-14T01:58:58.642Z,11.29
2023-05-14T01:59:58.580Z,11.31
2023-05-14T02:00:58.737Z,11.28
2023-05-14T02:01:58.857Z,11.35
2023-05-14T02:02:58.631Z,11.39
2023-05-14T02:03:58.673Z,11.53
2023-05-14T02:04:58.612Z,11.62
2023-05-14T02:05:58.524Z,11.57
2023-05-14T02:06:58.571Z,11.53
2023-05-14T02:07:58.538Z,11.83
2023-05-14T02:08:58.499Z,11.93
2023-05-14T02:09:58.510Z,11.86
2023-05-14T02:10:58.500Z,11.77
2023-05-14T02:11:58.496Z,11.77
2023-05-14T02:12:58.527Z,11.61
2023-05-14T02:13:58.469Z,11.49
2023-05-14T02:14:58.468Z,11.32
2023-05-14T02:15:58.594Z,11.35
2023-05-14T02:16:58.482Z,11.34
2023-05-14T02:17:58.498Z,11.34
2023-05-14T02:18:58.464Z,11.49
2023-05-14T02:19:58.440Z,11.25
2023-05-14T02:20:58.441Z,10.98
2023-05-14T02:21:58.427Z,10.95
2023-05-14T02:22:58.430Z,10.95
2023-05-14T02:23:58.430Z,10.74
2023-05-14T02:24:58.416Z,10.84
2023-05-14T02:25:58.414Z,10.91
2023-05-14T02:26:59.414Z,10.96
2023-05-14T02:27:58.385Z,10.95
2023-05-14T02:28:58.397Z,10.92
2023-05-14T02:29:58.386Z,10.80
2023-05-14T02:30:58.427Z,10.91
2023-05-14T02:31:58.429Z,11.07
2023-05-14T02:32:58.431Z,10.94
2023-05-14T02:33:58.371Z,11.13
2023-05-14T02:34:58.378Z,11.09
2023-05-14T02:35:58.353Z,10.96
2023-05-14T02:36:58.340Z,10.88
2023-05-14T02:37:58.332Z,10.84
2023-05-14T02:38:58.378Z,10.80
2023-05-14T02:39:58.323Z,10.80
2023-05-14T02:40:58.323Z,10.81
2023-05-14T02:41:58.305Z,10.91
2023-05-14T02:42:58.302Z,10.78
2023-05-14T02:43:58.318Z,10.83
2023-05-14T02:44:58.289Z,10.81
2023-05-14T02:45:58.318Z,10.80
2023-05-14T02:46:58.348Z,10.71
2023-05-14T02:47:58.342Z,10.83
2023-05-14T02:48:58.257Z,10.78
2023-05-14T02:49:58.257Z,10.59
2023-05-14T02:50:58.273Z,10.28
2023-05-14T02:51:58.245Z,10.40
2023-05-14T02:52:58.238Z,10.65
2023-05-14T02:53:58.229Z,10.77
2023-05-14T02:54:58.264Z,10.77
2023-05-14T02:55:58.234Z,10.88
2023-05-14T02:56:58.253Z,10.89
2023-05-14T02:57:58.220Z,10.91
2023-05-14T02:58:58.203Z,11.02
2023-05-14T02:59:58.197Z,11.20
2023-05-14T03:00:58.199Z,11.19
2023-05-14T03:01:58.244Z,11.16
2023-05-14T03:02:58.213Z,11.10
2023-05-14T03:03:58.176Z,10.84
2023-05-14T03:04:58.172Z,10.77
2023-05-14T03:05:58.183Z,10.71
2023-05-14T03:06:58.210Z,10.52
2023-05-14T03:07:59.240Z,10.68
2023-05-14T03:08:58.162Z,10.65
2023-05-14T03:09:58.156Z,10.51
2023-05-14T03:10:58.138Z,10.34
2023-05-14T03:11:58.145Z,10.42
2023-05-14T03:12:58.121Z,10.63
2023-05-14T03:13:58.123Z,10.78
2023-05-14T03:14:58.112Z,10.76
2023-05-14T03:15:58.114Z,10.94
2023-05-14T03:16:58.168Z,10.98
2023-05-14T03:17:58.207Z,11.01
2023-05-14T03:18:58.149Z,10.95
2023-05-14T03:19:58.084Z,11.11
2023-05-14T03:20:58.098Z,11.29
2023-05-14T03:21:58.073Z,11.39
2023-05-14T03:22:58.061Z,11.50
2023-05-14T03:23:58.085Z,11.56
2023-05-14T03:24:58.065Z,11.62
2023-05-14T03:25:58.048Z,11.61
2023-05-14T03:26:58.055Z,11.67
2023-05-14T03:27:58.037Z,11.80
2023-05-14T03:28:58.071Z,11.64
2023-05-14T03:29:58.037Z,11.68
2023-05-14T03:30:58.052Z,11.68
2023-05-14T03:31:58.009Z,11.78
2023-05-14T03:32:58.086Z,11.80
2023-05-14T03:33:58.020Z,11.68
2023-05-14T03:34:58.053Z,11.67
2023-05-14T03:35:58.006Z,11.44
2023-05-14T03:36:57.983Z,11.44
2023-05-14T03:37:57.994Z,11.36
2023-05-14T03:38:57.993Z,11.46
2023-05-14T03:39:58.006Z,11.35
2023-05-14T03:40:57.982Z,11.35
2023-05-14T03:41:57.975Z,11.39
2023-05-14T03:42:57.981Z,11.46
2023-05-14T03:43:57.950Z,11.56
2023-05-14T03:44:57.961Z,11.86
2023-05-14T03:45:57.981Z,11.97
2023-05-14T03:46:57.935Z,12.02
2023-05-14T03:47:57.976Z,12.16
2023-05-14T03:48:58.013Z,12.31
2023-05-14T03:49:57.933Z,12.56
2023-05-14T03:50:57.946Z,12.57
2023-05-14T03:51:57.907Z,12.77
2023-05-14T03:52:57.891Z,12.75
2023-05-14T03:53:57.902Z,12.81
2023-05-14T03:54:57.912Z,12.78
2023-05-14T03:55:57.892Z,12.82
2023-05-14T03:56:57.866Z,12.81
2023-05-14T03:57:57.861Z,12.77
2023-05-14T03:58:57.864Z,12.62
2023-05-14T03:59:57.861Z,12.78
2023-05-14T04:00:57.860Z,12.84
2023-05-14T04:01:57.860Z,12.87
2023-05-14T04:02:57.928Z,12.99
2023-05-14T04:03:57.921Z,13.07
2023-05-14T04:04:57.896Z,13.04
2023-05-14T04:05:57.851Z,13.12
2023-05-14T04:06:57.855Z,13.17
2023-05-14T04:07:57.846Z,13.33
2023-05-14T04:08:57.863Z,13.29
2023-05-14T04:09:57.818Z,13.27
2023-05-14T04:10:57.789Z,13.33
2023-05-14T04:11:57.829Z,13.41
2023-05-14T04:12:57.776Z,13.36
2023-05-14T04:13:57.782Z,13.41
2023-05-14T04:14:57.776Z,13.51
2023-05-14T04:15:57.798Z,13.49
2023-05-14T04:16:59.537Z,13.51
2023-05-14T04:17:57.848Z,13.65
2023-05-14T04:18:57.800Z,13.61
2023-05-14T04:19:57.751Z,13.63
2023-05-14T04:20:57.732Z,13.61
2023-05-14T04:21:57.730Z,13.61
2023-05-14T04:22:57.734Z,13.79
2023-05-14T04:23:57.754Z,13.73
2023-05-14T04:24:57.733Z,13.80
2023-05-14T04:25:57.724Z,13.91
2023-05-14T04:26:57.711Z,13.95
2023-05-14T04:27:57.687Z,13.84
2023-05-14T04:28:57.691Z,13.58
2023-05-14T04:29:57.700Z,13.54
2023-05-14T04:30:57.683Z,13.51
2023-05-14T04:31:57.727Z,13.41
2023-05-14T04:32:57.735Z,13.41
2023-05-14T04:33:57.682Z,13.51
2023-05-14T04:34:57.690Z,13.55
2023-05-14T04:35:57.657Z,13.59
2023-05-14T04:36:57.633Z,13.74
2023-05-14T04:37:57.692Z,13.84
2023-05-14T04:38:57.633Z,13.87
2023-05-14T04:39:57.654Z,14.10
2023-05-14T04:40:57.626Z,13.95
2023-05-14T04:41:57.647Z,13.80
2023-05-14T04:42:57.605Z,13.88
2023-05-14T04:43:57.589Z,13.89
2023-05-14T04:44:57.627Z,14.06
2023-05-14T04:45:57.690Z,13.87
2023-05-14T04:46:57.578Z,13.80
2023-05-14T04:47:57.621Z,13.88
2023-05-14T04:48:57.626Z,13.96
2023-05-14T04:49:57.573Z,13.88
2023-05-14T04:50:57.574Z,13.96
2023-05-14T04:51:57.552Z,13.81
2023-05-14T04:52:57.547Z,13.96
2023-05-14T04:53:57.540Z,13.83
2023-05-14T04:54:57.564Z,13.80
2023-05-14T04:55:57.533Z,13.83
2023-05-14T04:56:57.518Z,14.04
2023-05-14T04:57:57.540Z,14.01
2023-05-14T04:58:57.543Z,14.20
2023-05-14T04:59:57.524Z,14.16
2023-05-14T05:00:57.525Z,14.09
2023-05-14T05:01:57.499Z,14.16
2023-05-14T05:02:57.526Z,14.35
2023-05-14T05:03:57.532Z,14.39
2023-05-14T05:04:57.484Z,14.37
2023-05-14T05:05:57.466Z,14.43
2023-05-14T05:06:57.469Z,14.28
2023-05-14T05:07:57.439Z,14.35
2023-05-14T05:08:58.017Z,14.49
2023-05-14T05:09:57.453Z,14.44
2023-05-14T05:10:57.496Z,14.42
2023-05-14T05:11:57.434Z,14.65
2023-05-14T05:12:57.415Z,14.65
2023-05-14T05:13:57.436Z,14.49
2023-05-14T05:14:57.415Z,14.31
2023-05-14T05:15:57.453Z,14.16
2023-05-14T05:16:57.399Z,13.91
2023-05-14T05:17:57.428Z,13.71
2023-05-14T05:18:57.471Z,13.47
2023-05-14T05:19:57.460Z,13.56
2023-05-14T05:20:57.387Z,13.91
2023-05-14T05:21:57.371Z,14.04
2023-05-14T05:22:57.389Z,14.01
2023-05-14T05:23:57.340Z,14.24
2023-05-14T05:24:57.327Z,14.49
2023-05-14T05:25:57.340Z,14.52
2023-05-14T05:26:57.328Z,14.47
2023-05-14T05:27:57.344Z,14.42
2023-05-14T05:28:57.358Z,14.49
2023-05-14T05:29:57.322Z,14.62
2023-05-14T05:30:57.393Z,14.49
2023-05-14T05:31:57.323Z,14.50
2023-05-14T05:32:57.331Z,14.62
2023-05-14T05:33:57.277Z,14.74
2023-05-14T05:34:58.315Z,14.83
2023-05-14T05:35:57.281Z,14.75
2023-05-14T05:36:57.333Z,14.60
2023-05-14T05:37:58.588Z,14.56
2023-05-14T05:38:57.296Z,14.35
2023-05-14T05:39:57.249Z,14.27
2023-05-14T05:40:57.269Z,14.17
2023-05-14T05:41:57.232Z,14.13
2023-05-14T05:42:57.215Z,14.13
2023-05-14T05:43:57.222Z,14.46
2023-05-14T05:44:57.226Z,14.50
2023-05-14T05:45:57.213Z,14.75
2023-05-14T05:46:57.366Z,14.99
2023-05-14T05:47:57.247Z,15.13
2023-05-14T05:48:57.299Z,15.24
2023-05-14T05:49:57.182Z,15.23
2023-05-14T05:50:57.213Z,15.17
2023-05-14T05:51:57.178Z,15.23
2023-05-14T05:52:57.134Z,15.38
2023-05-14T05:53:57.125Z,15.45
2023-05-14T05:54:57.175Z,15.41
2023-05-14T05:55:57.115Z,15.48
2023-05-14T05:56:57.137Z,15.08
2023-05-14T05:57:57.142Z,14.81
2023-05-14T05:58:57.964Z,14.72
2023-05-14T05:59:57.134Z,14.68
2023-05-14T06:00:57.099Z,14.69
2023-05-14T06:01:57.158Z,14.88
2023-05-14T06:02:57.102Z,14.78
2023-05-14T06:03:57.084Z,14.74
2023-05-14T06:04:57.111Z,14.80
2023-05-14T06:05:58.053Z,15.06
2023-05-14T06:06:57.118Z,15.28
2023-05-14T06:07:57.048Z,15.05
2023-05-14T06:08:57.108Z,14.80
2023-05-14T06:09:58.046Z,14.91
2023-05-14T06:10:57.088Z,15.05
2023-05-14T06:11:57.026Z,15.11
2023-05-14T06:12:57.014Z,15.19
2023-05-14T06:13:57.020Z,15.30
2023-05-14T06:14:57.044Z,15.42
2023-05-14T06:15:56.998Z,15.57
2023-05-14T06:16:57.058Z,15.72
2023-05-14T06:17:57.081Z,15.72
2023-05-14T06:18:57.047Z,15.72
2023-05-14T06:19:56.992Z,15.70
2023-05-14T06:20:56.993Z,15.64
2023-05-14T06:21:56.965Z,15.67
2023-05-14T06:22:56.958Z,15.59
2023-05-14T06:23:56.986Z,15.42
2023-05-14T06:24:56.947Z,15.63
2023-05-14T06:25:56.931Z,15.79
2023-05-14T06:26:56.916Z,15.68
2023-05-14T06:27:56.905Z,15.70
2023-05-14T06:28:56.960Z,15.86
2023-05-14T06:29:56.920Z,16.09
2023-05-14T06:30:56.893Z,15.99
2023-05-14T06:31:56.979Z,16.11
2023-05-14T06:32:56.953Z,16.34
2023-05-14T06:33:56.876Z,16.33
2023-05-14T06:34:56.901Z,16.27
2023-05-14T06:35:56.988Z,16.41
2023-05-14T06:36:56.864Z,16.37
2023-05-14T06:37:56.862Z,16.41
2023-05-14T06:38:56.844Z,16.44
2023-05-14T06:39:57.887Z,16.44
2023-05-14T06:40:56.850Z,16.41
2023-05-14T06:41:56.824Z,16.27
2023-05-14T06:42:56.844Z,16.11
2023-05-14T06:43:56.831Z,15.86
2023-05-14T06:44:56.825Z,15.86
2023-05-14T06:45:56.821Z,15.97
2023-05-14T06:46:56.807Z,16.11
2023-05-14T06:47:56.864Z,16.09
2023-05-14T06:48:58.924Z,15.84
2023-05-14T06:49:56.785Z,15.81
2023-05-14T06:50:56.764Z,15.99
2023-05-14T06:51:56.813Z,15.93
2023-05-14T06:52:56.756Z,15.85
2023-05-14T06:53:56.757Z,15.96
2023-05-14T06:54:56.769Z,15.92
2023-05-14T06:55:56.729Z,16.22
2023-05-14T06:56:57.105Z,16.41
2023-05-14T06:57:56.724Z,16.83
2023-05-14T06:58:56.745Z,17.03
2023-05-14T06:59:56.731Z,16.73
2023-05-14T07:00:56.736Z,17.07
2023-05-14T07:01:56.816Z,17.55
2023-05-14T07:02:56.737Z,17.94
2023-05-14T07:03:56.776Z,18.09
2023-05-14T07:04:56.729Z,17.91
2023-05-14T07:05:56.683Z,17.44
2023-05-14T07:06:56.706Z,17.00
2023-05-14T07:07:56.717Z,16.68
2023-05-14T07:08:56.665Z,16.62
2023-05-14T07:09:56.650Z,16.95
2023-05-14T07:10:56.676Z,17.06
2023-05-14T07:11:56.659Z,16.92
2023-05-14T07:12:56.676Z,17.00
2023-05-14T07:13:56.640Z,16.88
2023-05-14T07:14:56.695Z,16.78
2023-05-14T07:15:56.654Z,17.06
2023-05-14T07:16:56.692Z,17.32
2023-05-14T07:17:56.644Z,17.41
2023-05-14T07:18:56.635Z,17.82
2023-05-14T07:19:56.627Z,18.03
2023-05-14T07:20:56.601Z,18.28
2023-05-14T07:21:56.592Z,18.37
2023-05-14T07:22:56.614Z,18.44
2023-05-14T07:23:56.573Z,18.46
2023-05-14T07:24:56.564Z,18.17
2023-05-14T07:25:56.628Z,18.29
2023-05-14T07:26:56.558Z,18.25
2023-05-14T07:27:56.549Z,18.57
2023-05-14T07:28:56.545Z,18.83
2023-05-14T07:29:56.550Z,18.29
2023-05-14T07:30:56.590Z,18.54
2023-05-14T07:31:56.537Z,18.98
2023-05-14T07:32:56.540Z,19.35
2023-05-14T07:33:56.529Z,19.93
2023-05-14T07:34:56.500Z,20.06
2023-05-14T07:35:56.504Z,19.14
2023-05-14T07:36:57.485Z,18.50
2023-05-14T07:37:56.554Z,18.21
2023-05-14T07:38:56.489Z,17.70
2023-05-14T07:39:57.442Z,17.57
2023-05-14T07:40:56.485Z,17.46
2023-05-14T07:41:56.514Z,17.95
2023-05-14T07:42:56.454Z,18.31
2023-05-14T07:43:56.444Z,18.90
2023-05-14T07:44:56.441Z,19.21
2023-05-14T07:45:56.464Z,19.35
2023-05-14T07:46:56.565Z,18.97
2023-05-14T07:47:56.603Z,18.82
2023-05-14T07:48:56.439Z,19.24
2023-05-14T07:49:56.506Z,19.75
2023-05-14T07:50:56.401Z,20.39
2023-05-14T07:51:56.386Z,20.87
2023-05-14T07:52:56.392Z,21.45
2023-05-14T07:53:56.396Z,21.56
2023-05-14T07:54:56.365Z,22.10
2023-05-14T07:55:56.371Z,21.54
2023-05-14T07:56:56.500Z,21.19
2023-05-14T07:57:56.410Z,21.19
2023-05-14T07:58:56.377Z,21.24
2023-05-14T07:59:56.359Z,20.98
2023-05-14T08:00:56.361Z,20.41
2023-05-14T08:01:56.398Z,20.38
2023-05-14T08:02:56.616Z,20.89
2023-05-14T08:03:56.429Z,20.06
2023-05-14T08:04:56.386Z,19.24
2023-05-14T08:05:56.315Z,18.84
2023-05-14T08:06:56.366Z,18.90
2023-05-14T08:07:56.343Z,18.70
2023-05-14T08:08:56.282Z,18.86
2023-05-14T08:09:56.284Z,19.32
2023-05-14T08:10:56.347Z,19.10
2023-05-14T08:11:56.292Z,19.31
2023-05-14T08:12:56.305Z,19.06
2023-05-14T08:13:56.258Z,19.88
2023-05-14T08:14:56.277Z,20.41
2023-05-14T08:15:56.322Z,21.02
2023-05-14T08:16:56.335Z,20.93
2023-05-14T08:17:56.315Z,20.59
2023-05-14T08:18:56.330Z,20.41
2023-05-14T08:19:56.255Z,20.39
2023-05-14T08:20:56.253Z,20.09
2023-05-14T08:21:56.221Z,20.16
2023-05-14T08:22:56.222Z,20.30
2023-05-14T08:23:56.246Z,20.79
2023-05-14T08:24:56.213Z,20.91
2023-05-14T08:25:56.197Z,20.81
2023-05-14T08:26:56.177Z,20.10
2023-05-14T08:27:56.351Z,19.91
2023-05-14T08:28:56.173Z,19.98
2023-05-14T08:29:56.197Z,20.38
2023-05-14T08:30:56.281Z,20.12
2023-05-14T08:31:56.156Z,19.98
2023-05-14T08:32:56.182Z,19.91
2023-05-14T08:33:56.160Z,19.97
2023-05-14T08:34:56.165Z,20.25
2023-05-14T08:35:56.191Z,20.27
2023-05-14T08:36:56.114Z,20.58
2023-05-14T08:37:56.126Z,20.56
2023-05-14T08:38:56.105Z,20.64
2023-05-14T08:39:56.088Z,20.69
2023-05-14T08:40:56.123Z,21.34
2023-05-14T08:41:56.168Z,21.78
2023-05-14T08:42:56.081Z,21.94
2023-05-14T08:43:56.082Z,21.98
2023-05-14T08:44:56.163Z,22.23
2023-05-14T08:45:56.178Z,22.62
2023-05-14T08:46:57.000Z,22.38
2023-05-14T08:47:56.179Z,21.82
2023-05-14T08:48:56.109Z,21.57
2023-05-14T08:49:56.080Z,23.22
2023-05-14T08:50:56.058Z,24.69
2023-05-14T08:51:56.066Z,25.13
2023-05-14T08:52:56.018Z,25.50
2023-05-14T08:53:56.040Z,26.74
2023-05-14T08:54:57.024Z,25.54
2023-05-14T08:55:56.035Z,26.01
2023-05-14T08:56:56.071Z,26.06
2023-05-14T08:57:56.059Z,24.79
2023-05-14T08:58:56.030Z,24.10
2023-05-14T08:59:56.003Z,24.23
2023-05-14T09:00:55.974Z,23.65
2023-05-14T09:01:56.063Z,22.94
2023-05-14T09:02:55.969Z,22.72
2023-05-14T09:03:56.018Z,21.91
2023-05-14T09:04:56.920Z,21.76
2023-05-14T09:05:56.737Z,21.50
2023-05-14T09:06:55.937Z,21.50
2023-05-14T09:07:55.917Z,22.12
2023-05-14T09:08:55.917Z,22.14
2023-05-14T09:09:55.928Z,22.12
2023-05-14T09:10:55.947Z,22.43
2023-05-14T09:11:55.903Z,21.99
2023-05-14T09:12:55.885Z,22.17
2023-05-14T09:13:55.919Z,22.86
2023-05-14T09:14:55.917Z,23.75
2023-05-14T09:15:55.958Z,23.64
2023-05-14T09:16:55.877Z,23.68
2023-05-14T09:17:55.923Z,23.77
2023-05-14T09:18:55.983Z,23.14
2023-05-14T09:19:55.854Z,23.09
2023-05-14T09:20:55.864Z,23.14
2023-05-14T09:21:56.079Z,23.19
2023-05-14T09:22:55.850Z,23.22
2023-05-14T09:23:55.824Z,23.11
2023-05-14T09:24:55.867Z,22.65
2023-05-14T09:25:55.811Z,22.25
2023-05-14T09:26:55.838Z,22.25
2023-05-14T09:27:58.519Z,22.17
2023-05-14T09:28:55.804Z,21.97
2023-05-14T09:29:55.779Z,23.57
2023-05-14T09:30:55.774Z,24.68
2023-05-14T09:31:55.832Z,24.20
2023-05-14T09:32:55.873Z,23.70
2023-05-14T09:33:55.749Z,23.45
2023-05-14T09:34:55.790Z,23.34
2023-05-14T09:35:58.177Z,24.80
2023-05-14T09:36:55.738Z,26.46
2023-05-14T09:37:55.764Z,27.16
2023-05-14T09:38:55.721Z,25.47
2023-05-14T09:39:55.731Z,24.47
2023-05-14T09:40:55.702Z,23.76
2023-05-14T09:41:55.731Z,23.53
2023-05-14T09:42:55.916Z,23.62
2023-05-14T09:43:55.707Z,23.79
2023-05-14T09:45:55.698Z,24.79
2023-05-14T09:46:55.837Z,25.50
2023-05-14T09:47:55.939Z,25.28
2023-05-14T09:48:55.677Z,25.57
2023-05-14T09:49:55.749Z,26.17
2023-05-14T09:50:55.727Z,26.69
2023-05-14T09:51:55.657Z,24.98
2023-05-14T09:52:55.649Z,23.83
2023-05-14T09:53:55.622Z,23.31
2023-05-14T09:54:55.611Z,24.01
2023-05-14T09:55:56.623Z,25.17
2023-05-14T09:56:55.958Z,26.40
2023-05-14T09:57:56.605Z,26.25
2023-05-14T09:58:55.623Z,25.01
2023-05-14T09:59:55.635Z,24.16
2023-05-14T10:00:56.643Z,24.42
2023-05-14T10:01:55.571Z,24.34
2023-05-14T10:02:55.610Z,23.94
2023-05-14T10:03:55.605Z,23.67
2023-05-14T10:04:55.577Z,24.91
2023-05-14T10:05:55.557Z,25.57
2023-05-14T10:06:55.545Z,25.20
2023-05-14T10:07:55.550Z,25.25
2023-05-14T10:08:55.574Z,26.74
2023-05-14T10:09:57.189Z,26.65
2023-05-14T10:10:55.553Z,26.46
2023-05-14T10:11:55.533Z,25.84
2023-05-14T10:12:55.586Z,25.52
2023-05-14T10:13:55.510Z,26.08
2023-05-14T10:14:55.512Z,26.87
2023-05-14T10:15:55.506Z,26.46
2023-05-14T10:16:55.573Z,25.80
2023-05-14T10:17:55.527Z,25.32
2023-05-14T10:18:57.314Z,25.17
2023-05-14T10:19:56.467Z,24.02
2023-05-14T10:20:55.483Z,23.07
2023-05-14T10:21:55.459Z,23.43
2023-05-14T10:22:55.473Z,23.92
2023-05-14T10:23:55.451Z,24.39
2023-05-14T10:24:59.841Z,23.97
2023-05-14T10:25:55.438Z,23.97
2023-05-14T10:26:55.444Z,24.85
2023-05-14T10:27:55.432Z,25.87
2023-05-14T10:28:55.403Z,26.22
2023-05-14T10:29:55.452Z,26.49
2023-05-14T10:30:55.462Z,26.67
2023-05-14T10:31:55.490Z,26.46
2023-05-14T10:32:55.488Z,25.77
2023-05-14T10:33:55.754Z,25.15
2023-05-14T10:34:55.394Z,24.68
2023-05-14T10:35:55.383Z,25.89
2023-05-14T10:36:55.372Z,27.48
2023-05-14T10:37:55.361Z,26.80
2023-05-14T10:38:55.366Z,25.42
2023-05-14T10:39:55.401Z,25.37
2023-05-14T10:40:55.373Z,25.56
2023-05-14T10:41:55.355Z,25.38
2023-05-14T10:42:55.370Z,25.22
2023-05-14T10:43:55.332Z,24.87
2023-05-14T10:44:55.342Z,25.22
2023-05-14T10:45:55.328Z,25.37
2023-05-14T10:46:55.372Z,26.39
2023-05-14T10:47:55.372Z,27.33
2023-05-14T10:48:55.380Z,27.91
2023-05-14T10:49:55.330Z,27.73
2023-05-14T10:50:55.456Z,27.86
2023-05-14T10:51:55.315Z,27.80
2023-05-14T10:52:55.287Z,28.01
2023-05-14T10:53:55.307Z,27.91
2023-05-14T10:54:55.287Z,28.46
2023-05-14T10:55:55.268Z,29.00
2023-05-14T10:56:55.253Z,29.71
2023-05-14T10:57:55.275Z,30.02
2023-05-14T10:58:55.350Z,30.59
2023-05-14T10:59:55.298Z,29.25
2023-05-14T11:00:55.268Z,29.15
2023-05-14T11:01:55.356Z,28.62
2023-05-14T11:02:55.301Z,29.52
2023-05-14T11:03:55.266Z,30.00
2023-05-14T11:04:55.254Z,28.25
2023-05-14T11:05:55.260Z,28.23
2023-05-14T11:06:55.213Z,28.85
2023-05-14T11:07:55.191Z,28.62
2023-05-14T11:08:56.113Z,27.94
2023-05-14T11:09:55.191Z,28.53
2023-05-14T11:10:55.209Z,28.96
2023-05-14T11:11:55.180Z,29.35
2023-05-14T11:12:55.188Z,27.79
2023-05-14T11:13:55.247Z,27.89
2023-05-14T11:14:55.194Z,28.10
2023-05-14T11:15:55.213Z,29.03
2023-05-14T11:16:55.264Z,29.59
2023-05-14T11:17:55.225Z,28.06
2023-05-14T11:18:55.284Z,27.33
2023-05-14T11:19:55.165Z,27.28
2023-05-14T11:20:56.418Z,27.43
2023-05-14T11:21:57.071Z,26.61
2023-05-14T11:22:56.583Z,26.11
2023-05-14T11:23:55.641Z,25.65
2023-05-14T11:24:56.834Z,26.57
2023-05-14T11:25:57.182Z,25.28
2023-05-14T11:26:55.146Z,24.53
2023-05-14T11:27:55.183Z,24.01
2023-05-14T11:28:55.072Z,23.95
2023-05-14T11:29:55.080Z,23.82
2023-05-14T11:30:55.089Z,23.42
2023-05-14T11:31:55.067Z,23.23
2023-05-14T11:32:55.084Z,23.39
2023-05-14T11:33:55.068Z,23.52
2023-05-14T11:34:55.105Z,23.53
2023-05-14T11:35:55.050Z,23.75
2023-05-14T11:36:55.058Z,23.39
2023-05-14T11:37:55.083Z,23.26
2023-05-14T11:38:55.061Z,23.43
2023-05-14T11:39:55.110Z,23.61
2023-05-14T11:40:55.030Z,23.57
2023-05-14T11:41:55.092Z,23.65
2023-05-14T11:42:55.035Z,24.12
2023-05-14T11:43:54.999Z,24.29
2023-05-14T11:44:55.037Z,24.32
2023-05-14T11:45:55.062Z,24.23
2023-05-14T11:46:54.977Z,24.54
2023-05-14T11:47:55.127Z,24.77
2023-05-14T11:48:54.973Z,25.71
2023-05-14T11:49:55.045Z,27.31
2023-05-14T11:50:54.949Z,28.14
2023-05-14T11:51:55.010Z,29.68
2023-05-14T11:52:55.078Z,30.38
2023-05-14T11:53:54.988Z,31.26
2023-05-14T11:54:55.024Z,30.59
2023-05-14T11:55:54.993Z,29.99
2023-05-14T11:56:55.560Z,28.80
2023-05-14T11:57:54.992Z,28.23
2023-05-14T11:58:54.992Z,28.81
2023-05-14T11:59:54.980Z,28.50
2023-05-14T12:00:54.913Z,29.57
2023-05-14T12:01:54.878Z,30.75
2023-05-14T12:02:54.980Z,31.53
2023-05-14T12:03:55.981Z,30.87
2023-05-14T12:04:54.980Z,30.03
2023-05-14T12:05:54.883Z,28.97
2023-05-14T12:06:54.841Z,29.92
2023-05-14T12:07:55.105Z,29.81
2023-05-14T12:08:54.882Z,30.29
2023-05-14T12:09:54.812Z,29.81
2023-05-14T12:10:54.883Z,30.24
2023-05-14T12:11:54.880Z,29.86
2023-05-14T12:12:54.800Z,29.25
2023-05-14T12:13:54.811Z,29.10
2023-05-14T12:14:54.797Z,28.54
2023-05-14T12:15:54.820Z,28.22
2023-05-14T12:16:54.803Z,28.69
2023-05-14T12:17:54.823Z,29.13
2023-05-14T12:18:54.802Z,27.21
2023-05-14T12:19:54.787Z,25.79
2023-05-14T12:20:54.830Z,25.27
2023-05-14T12:21:54.796Z,24.85
2023-05-14T12:22:54.788Z,24.88
2023-05-14T12:23:54.774Z,24.69
2023-05-14T12:24:54.779Z,25.05
2023-05-14T12:25:54.794Z,25.13
2023-05-14T12:26:54.868Z,25.05
2023-05-14T12:27:54.848Z,24.71
2023-05-14T12:28:54.777Z,24.88
2023-05-14T12:29:54.757Z,24.68
2023-05-14T12:30:54.798Z,24.79
2023-05-14T12:31:54.820Z,25.09
2023-05-14T12:32:54.841Z,25.31
2023-05-14T12:33:54.832Z,25.28
2023-05-14T12:34:54.779Z,25.42
2023-05-14T12:35:54.695Z,24.95
2023-05-14T12:36:54.694Z,24.64
2023-05-14T12:37:54.695Z,25.25
2023-05-14T12:38:54.681Z,25.62
2023-05-14T12:39:54.711Z,25.91
2023-05-14T12:40:54.664Z,26.28
2023-05-14T12:41:54.708Z,26.49
2023-05-14T12:42:56.664Z,26.92
2023-05-14T12:43:55.680Z,27.74
2023-05-14T12:44:54.673Z,28.25
2023-05-14T12:45:54.670Z,28.23
2023-05-14T12:46:54.687Z,28.46
2023-05-14T12:47:54.676Z,28.66
2023-05-14T12:48:54.682Z,27.29
2023-05-14T12:49:54.615Z,26.67
2023-05-14T12:50:54.726Z,26.59
2023-05-14T12:52:07.854Z,26.37
2023-05-14T12:52:56.599Z,25.89
2023-05-14T12:53:54.584Z,25.91